| time (UTC) | temp C | wind direction | speed KPH | gust KPH | rain 1hr cm | rain 24hr cm | rain mn cm | humidity % | barometer mb |
| 20260507112600 | 21 | 219 | 6.4 | 11.3 | 0.00 | 0.15 | 0.10 | 52 | 1013.2 |
| 20260507111541 | 21 | 209 | 11.3 | 17.7 | 0.00 | 0.15 | 0.10 | 52 | 1013.3 |
| 20260507110539 | 21 | 202 | 6.4 | 12.9 | 0.00 | 0.15 | 0.10 | 51 | 1013.3 |
| 20260507105540 | 21 | 221 | 9.7 | 19.3 | 0.00 | 0.15 | 0.10 | 52 | 1013.3 |
| 20260507104537 | 21 | 230 | 12.9 | 29.0 | 0.00 | 0.15 | 0.10 | 52 | 1013.3 |
| 20260507103538 | 21 | 240 | 4.8 | 16.1 | 0.00 | 0.15 | 0.10 | 54 | 1013.4 |
| 20260507102537 | 21 | 232 | 8.0 | 16.1 | 0.00 | 0.15 | 0.10 | 55 | 1013.4 |
| 20260507101558 | 21 | 223 | 4.8 | 12.9 | 0.00 | 0.15 | 0.10 | 55 | 1013.5 |
| 20260507100556 | 21 | 218 | 8.0 | 22.5 | 0.00 | 0.15 | 0.10 | 56 | 1013.5 |
| 20260507095536 | 21 | 186 | 4.8 | 19.3 | 0.00 | 0.15 | 0.10 | 56 | 1013.4 |
| 20260507094535 | 20 | 195 | 6.4 | 12.9 | 0.00 | 0.15 | 0.10 | 58 | 1013.5 |
| 20260507093536 | 21 | 209 | 4.8 | 12.9 | 0.00 | 0.15 | 0.10 | 58 | 1013.5 |
| 20260507092534 | 20 | 249 | 3.2 | 8.0 | 0.00 | 0.15 | 0.10 | 58 | 1013.4 |
| 20260507091534 | 20 | 228 | 4.8 | 8.0 | 0.00 | 0.15 | 0.10 | 59 | 1013.4 |
| 20260507090534 | 19 | 245 | 6.4 | 16.1 | 0.00 | 0.15 | 0.10 | 62 | 1013.4 |
| 20260507085554 | 19 | 252 | 8.0 | 16.1 | 0.00 | 0.15 | 0.10 | 63 | 1013.4 |
| 20260507084533 | 18 | 243 | 6.4 | 17.7 | 0.00 | 0.15 | 0.10 | 64 | 1013.3 |
| 20260507083533 | 18 | 220 | 8.0 | 17.7 | 0.00 | 0.15 | 0.10 | 66 | 1013.2 |
| 20260507082532 | 18 | 240 | 8.0 | 16.1 | 0.00 | 0.15 | 0.10 | 66 | 1013.2 |
| 20260507081532 | 18 | 210 | 8.0 | 17.7 | 0.00 | 0.15 | 0.10 | 66 | 1013.1 |
| 20260507080551 | 18 | 242 | 4.8 | 12.9 | 0.00 | 0.15 | 0.10 | 67 | 1013.0 |
| 20260507075530 | 18 | 215 | 8.0 | 16.1 | 0.00 | 0.15 | 0.10 | 67 | 1013.0 |
| 20260507074550 | 18 | 216 | 8.0 | 16.1 | 0.00 | 0.15 | 0.10 | 69 | 1013.0 |
| 20260507073530 | 17 | 214 | 9.7 | 17.7 | 0.00 | 0.15 | 0.10 | 69 | 1012.8 |
| 20260507072529 | 18 | 209 | 6.4 | 16.1 | 0.00 | 0.15 | 0.10 | 68 | 1012.7 |
| 20260507071530 | 17 | 209 | 8.0 | 17.7 | 0.00 | 0.15 | 0.10 | 70 | 1012.7 |
| 20260507070528 | 17 | 223 | 6.4 | 16.1 | 0.00 | 0.15 | 0.10 | 71 | 1012.7 |
| 20260507065528 | 17 | 219 | 9.7 | 17.7 | 0.00 | 0.15 | 0.10 | 73 | 1012.7 |
| 20260507064527 | 16 | 221 | 4.8 | 12.9 | 0.00 | 0.15 | 0.10 | 76 | 1012.7 |
| 20260507063527 | 16 | 216 | 9.7 | 16.1 | 0.00 | 0.15 | 0.10 | 75 | 1012.7 |
| 20260507062526 | 16 | 210 | 6.4 | 11.3 | 0.00 | 0.15 | 0.10 | 77 | 1012.7 |
| 20260507061526 | 16 | 235 | 3.2 | 6.4 | 0.00 | 0.15 | 0.10 | 78 | 1012.7 |
| 20260507060526 | 16 | 208 | 4.8 | 11.3 | 0.00 | 0.15 | 0.10 | 79 | 1012.6 |
| 20260507055526 | 15 | 224 | 4.8 | 11.3 | 0.00 | 0.15 | 0.10 | 80 | 1012.5 |
| 20260507054545 | 15 | 211 | 4.8 | 8.0 | 0.00 | 0.15 | 0.10 | 80 | 1012.4 |
| 20260507053525 | 15 | 216 | 4.8 | 11.3 | 0.00 | 0.15 | 0.10 | 81 | 1012.4 |
| 20260507052525 | 15 | 211 | 4.8 | 12.9 | 0.00 | 0.15 | 0.10 | 81 | 1012.2 |
| 20260507051554 | 15 | 213 | 4.8 | 11.3 | 0.00 | 0.15 | 0.10 | 81 | 1012.0 |
| 20260507050523 | 15 | 210 | 4.8 | 11.3 | 0.00 | 0.15 | 0.10 | 81 | 1011.9 |
| 20260507045523 | 15 | 210 | 1.6 | 6.4 | 0.00 | 0.15 | 0.10 | 82 | 1011.8 |
| 20260507044522 | 15 | 158 | 0.0 | 6.4 | 0.00 | 0.15 | 0.10 | 83 | 1011.7 |
| 20260507043652 | 15 | 195 | 0.0 | 6.4 | 0.00 | 0.15 | 0.10 | 83 | 1011.5 |
| 20260507042550 | 15 | 0.0 | 0.0 | 0.00 | 0.15 | 0.10 | 84 | 1011.3 | |
| 20260507041620 | 15 | 223 | 1.6 | 6.4 | 0.00 | 0.15 | 0.10 | 84 | 1011.2 |
| 20260507040519 | 15 | 198 | 6.4 | 11.3 | 0.00 | 0.15 | 0.10 | 84 | 1011.2 |
| 20260507035519 | 15 | 211 | 4.8 | 11.3 | 0.00 | 0.15 | 0.10 | 84 | 1011.2 |
| 20260507034518 | 15 | 213 | 8.0 | 16.1 | 0.00 | 0.15 | 0.10 | 83 | 1011.1 |
| 20260507033548 | 15 | 215 | 8.0 | 16.1 | 0.00 | 0.15 | 0.10 | 83 | 1010.9 |
| 20260507032518 | 15 | 226 | 8.0 | 16.1 | 0.00 | 0.15 | 0.10 | 81 | 1010.9 |
| 20260507031547 | 15 | 220 | 6.4 | 17.7 | 0.00 | 0.15 | 0.10 | 81 | 1010.9 |
| 20260507030547 | 15 | 216 | 8.0 | 17.7 | 0.00 | 0.15 | 0.10 | 81 | 1010.9 |
| 20260507025515 | 15 | 235 | 3.2 | 8.0 | 0.00 | 0.15 | 0.10 | 81 | 1011.0 |
| 20260507024545 | 15 | 256 | 4.8 | 16.1 | 0.00 | 0.15 | 0.10 | 81 | 1011.0 |
| 20260507023545 | 15 | 225 | 4.8 | 12.9 | 0.00 | 0.15 | 0.10 | 81 | 1010.9 |
| 20260507022544 | 15 | 232 | 4.8 | 8.0 | 0.00 | 0.15 | 0.10 | 82 | 1011.0 |
| 20260507021544 | 15 | 255 | 3.2 | 6.4 | 0.00 | 0.15 | 0.10 | 82 | 1010.8 |
| 20260507020543 | 15 | 248 | 3.2 | 8.0 | 0.00 | 0.15 | 0.10 | 82 | 1010.8 |
| 20260507015543 | 16 | 238 | 3.2 | 8.0 | 0.00 | 0.15 | 0.10 | 82 | 1010.8 |
| 20260507014543 | 15 | 256 | 3.2 | 8.0 | 0.00 | 0.15 | 0.10 | 82 | 1010.9 |
| 20260507013543 | 16 | 247 | 3.2 | 11.3 | 0.00 | 0.15 | 0.10 | 82 | 1011.0 |
| 20260507012541 | 16 | 233 | 4.8 | 11.3 | 0.00 | 0.15 | 0.10 | 83 | 1011.0 |
| 20260507011541 | 15 | 245 | 3.2 | 6.4 | 0.00 | 0.15 | 0.10 | 85 | 1011.0 |
| 20260507010600 | 15 | 252 | 1.6 | 4.8 | 0.00 | 0.15 | 0.10 | 86 | 1011.0 |
| 20260507005540 | 15 | 225 | 0.0 | 4.8 | 0.00 | 0.15 | 0.10 | 85 | 1011.0 |
| 20260507004540 | 16 | 213 | 1.6 | 6.4 | 0.00 | 0.15 | 0.10 | 85 | 1011.0 |
| 20260507003540 | 16 | 215 | 1.6 | 6.4 | 0.00 | 0.15 | 0.10 | 85 | 1011.0 |
| 20260507002538 | 16 | 221 | 3.2 | 11.3 | 0.00 | 0.15 | 0.10 | 86 | 1011.1 |
| 20260507001608 | 16 | 205 | 0.0 | 4.8 | 0.00 | 0.15 | 0.10 | 86 | 1011.2 |
| 20260507000537 | 16 | 215 | 0.0 | 4.8 | 0.08 | 0.15 | 0.10 | 86 | 1011.3 |
| 20260506235537 | 16 | 265 | 1.6 | 6.4 | 0.08 | 0.15 | 0.10 | 86 | 1011.5 |
| 20260506234627 | 15 | 258 | 3.2 | 6.4 | 0.08 | 0.15 | 0.10 | 87 | 1011.4 |
| 20260506233536 | 16 | 243 | 1.6 | 6.4 | 0.10 | 0.15 | 0.10 | 87 | 1011.5 |
| 20260506232556 | 16 | 256 | 3.2 | 8.0 | 0.10 | 0.15 | 0.10 | 86 | 1011.5 |
| 20260506231605 | 16 | 246 | 11.3 | 17.7 | 0.10 | 0.15 | 0.10 | 85 | 1011.7 |
| 20260506230534 | 16 | 221 | 11.3 | 25.7 | 0.03 | 0.08 | 0.03 | 82 | 1011.9 |
| 20260506225534 | 16 | 217 | 9.7 | 22.5 | 0.03 | 0.08 | 0.03 | 82 | 1011.9 |
| 20260506224533 | 16 | 215 | 9.7 | 19.3 | 0.03 | 0.08 | 0.03 | 82 | 1011.7 |
| 20260506223533 | 17 | 207 | 9.7 | 19.3 | 0.00 | 0.05 | 0.00 | 80 | 1011.6 |
| 20260506222552 | 17 | 221 | 9.7 | 17.7 | 0.00 | 0.05 | 0.00 | 79 | 1011.1 |
| 20260506221613 | 17 | 232 | 4.8 | 11.3 | 0.00 | 0.05 | 0.00 | 80 | 1010.8 |
| 20260506220532 | 17 | 237 | 4.8 | 12.9 | 0.00 | 0.05 | 0.00 | 80 | 1010.7 |
| 20260506215531 | 17 | 226 | 4.8 | 11.3 | 0.00 | 0.05 | 0.05 | 79 | 1010.8 |
| 20260506214530 | 17 | 231 | 3.2 | 11.3 | 0.00 | 0.05 | 0.05 | 80 | 1010.8 |
| 20260506213530 | 17 | 218 | 4.8 | 16.1 | 0.00 | 0.05 | 0.05 | 80 | 1010.9 |
| 20260506212550 | 17 | 228 | 6.4 | 11.3 | 0.00 | 0.05 | 0.05 | 81 | 1010.8 |
| 20260506211529 | 17 | 221 | 4.8 | 11.3 | 0.03 | 0.05 | 0.05 | 83 | 1010.8 |
| 20260506210529 | 17 | 216 | 3.2 | 6.4 | 0.05 | 0.05 | 0.05 | 83 | 1010.7 |
| 20260506205529 | 17 | 209 | 3.2 | 8.0 | 0.05 | 0.05 | 0.05 | 84 | 1010.6 |
| 20260506204528 | 17 | 257 | 4.8 | 8.0 | 0.05 | 0.05 | 0.05 | 84 | 1010.6 |
| 20260506203528 | 17 | 263 | 3.2 | 6.4 | 0.05 | 0.05 | 0.05 | 84 | 1010.8 |
| 20260506202527 | 17 | 226 | 6.4 | 16.1 | 0.05 | 0.05 | 0.05 | 84 | 1011.2 |
| 20260506201528 | 17 | 248 | 6.4 | 12.9 | 0.03 | 0.03 | 0.03 | 84 | 1011.2 |
| 20260506200526 | 18 | 240 | 11.3 | 22.5 | 0.00 | 0.00 | 0.00 | 78 | 1011.3 |
| 20260506195526 | 19 | 229 | 12.9 | 33.8 | 0.00 | 0.00 | 0.00 | 67 | 1011.3 |
| 20260506194525 | 20 | 210 | 11.3 | 30.6 | 0.00 | 0.00 | 0.00 | 58 | 1010.9 |
| 20260506193525 | 21 | 222 | 6.4 | 16.1 | 0.00 | 0.00 | 0.00 | 53 | 1010.4 |
| 20260506192555 | 21 | 245 | 3.2 | 6.4 | 0.00 | 0.00 | 0.00 | 52 | 1010.1 |
| 20260506191525 | 21 | 224 | 4.8 | 8.0 | 0.00 | 0.00 | 0.00 | 52 | 1010.1 |
| 20260506190523 | 21 | 214 | 3.2 | 8.0 | 0.00 | 0.00 | 0.00 | 51 | 1009.9 |
| 20260506185523 | 21 | 215 | 4.8 | 8.0 | 0.00 | 0.00 | 0.00 | 51 | 1010.0 |
| 20260506184522 | 21 | 223 | 4.8 | 8.0 | 0.00 | 0.00 | 0.00 | 50 | 1010.0 |
| 20260506183613 | 22 | 224 | 6.4 | 11.3 | 0.00 | 0.00 | 0.00 | 50 | 1009.8 |
| 20260506182552 | 22 | 219 | 4.8 | 8.0 | 0.00 | 0.00 | 0.00 | 50 | 1009.6 |
| 20260506181521 | 22 | 216 | 6.4 | 12.9 | 0.00 | 0.00 | 0.00 | 49 | 1009.5 |
| 20260506180521 | 22 | 231 | 4.8 | 11.3 | 0.00 | 0.00 | 0.00 | 48 | 1009.5 |
| 20260506175519 | 22 | 231 | 4.8 | 12.9 | 0.00 | 0.00 | 0.00 | 47 | 1009.3 |
| 20260506174548 | 23 | 233 | 6.4 | 16.1 | 0.00 | 0.00 | 0.00 | 47 | 1009.3 |
| 20260506173548 | 23 | 227 | 6.4 | 12.9 | 0.00 | 0.00 | 0.00 | 46 | 1009.3 |
| 20260506172547 | 23 | 220 | 4.8 | 12.9 | 0.00 | 0.00 | 0.00 | 46 | 1009.3 |
| 20260506171607 | 23 | 243 | 6.4 | 17.7 | 0.00 | 0.00 | 0.00 | 45 | 1009.3 |
| 20260506170536 | 23 | 229 | 4.8 | 12.9 | 0.00 | 0.00 | 0.00 | 44 | 1009.3 |
| 20260506165547 | 23 | 218 | 6.4 | 17.7 | 0.00 | 0.00 | 0.00 | 44 | 1009.3 |
| 20260506164606 | 24 | 213 | 8.0 | 25.7 | 0.00 | 0.00 | 0.00 | 44 | 1009.3 |
| 20260506163547 | 24 | 217 | 6.4 | 16.1 | 0.00 | 0.00 | 0.00 | 43 | 1009.4 |
| 20260506162544 | 24 | 242 | 9.7 | 22.5 | 0.00 | 0.00 | 0.00 | 43 | 1009.4 |
| 20260506161545 | 24 | 219 | 9.7 | 24.1 | 0.00 | 0.00 | 0.00 | 42 | 1009.4 |
| 20260506160544 | 24 | 209 | 8.0 | 17.7 | 0.00 | 0.00 | 0.00 | 41 | 1009.4 |
| 20260506155543 | 25 | 232 | 9.7 | 24.1 | 0.00 | 0.00 | 0.00 | 41 | 1009.4 |
| 20260506154543 | 24 | 230 | 11.3 | 25.7 | 0.00 | 0.00 | 0.00 | 41 | 1009.5 |
| 20260506153543 | 25 | 226 | 6.4 | 19.3 | 0.00 | 0.00 | 0.00 | 40 | 1009.5 |
| 20260506152542 | 25 | 218 | 8.0 | 24.1 | 0.00 | 0.00 | 0.00 | 39 | 1009.5 |
| 20260506151542 | 25 | 237 | 8.0 | 24.1 | 0.00 | 0.00 | 0.00 | 39 | 1009.6 |
| 20260506150541 | 25 | 198 | 11.3 | 19.3 | 0.00 | 0.00 | 0.00 | 39 | 1009.5 |
| 20260506145621 | 25 | 210 | 14.5 | 29.0 | 0.00 | 0.00 | 0.00 | 39 | 1009.5 |
| 20260506144620 | 25 | 190 | 11.3 | 24.1 | 0.00 | 0.00 | 0.00 | 39 | 1009.7 |
| 20260506143540 | 25 | 209 | 11.3 | 24.1 | 0.00 | 0.00 | 0.00 | 38 | 1009.7 |
| 20260506142600 | 25 | 200 | 12.9 | 25.7 | 0.00 | 0.00 | 0.00 | 38 | 1009.8 |
| 20260506141539 | 25 | 219 | 12.9 | 25.7 | 0.00 | 0.00 | 0.00 | 38 | 1009.8 |
| 20260506140539 | 25 | 216 | 14.5 | 30.6 | 0.00 | 0.00 | 0.00 | 37 | 1009.8 |
| 20260506135538 | 25 | 221 | 14.5 | 25.7 | 0.00 | 0.00 | 0.00 | 36 | 1009.8 |
| 20260506134618 | 25 | 238 | 9.7 | 24.1 | 0.00 | 0.00 | 0.00 | 36 | 1009.9 |
| 20260506133603 | 25 | 236 | 8.0 | 35.4 | 0.00 | 0.00 | 0.00 | 35 | 1010.0 |
| 20260506132537 | 25 | 207 | 12.9 | 19.3 | 0.00 | 0.00 | 0.00 | 35 | 1010.0 |
| 20260506131537 | 25 | 235 | 14.5 | 29.0 | 0.00 | 0.00 | 0.00 | 35 | 1010.1 |
| 20260506130536 | 25 | 213 | 17.7 | 29.0 | 0.00 | 0.00 | 0.00 | 37 | 1010.2 |
| 20260506125535 | 25 | 210 | 14.5 | 35.4 | 0.00 | 0.00 | 0.00 | 37 | 1010.2 |
| 20260506124535 | 25 | 207 | 11.3 | 33.8 | 0.00 | 0.00 | 0.00 | 36 | 1010.3 |
| 20260506123535 | 24 | 227 | 16.1 | 30.6 | 0.00 | 0.00 | 0.00 | 37 | 1010.3 |
| 20260506122534 | 25 | 196 | 19.3 | 43.5 | 0.00 | 0.00 | 0.00 | 36 | 1010.4 |
| 20260506121534 | 25 | 232 | 11.3 | 35.4 | 0.00 | 0.00 | 0.00 | 37 | 1010.5 |
| 20260506120554 | 25 | 195 | 12.9 | 30.6 | 0.00 | 0.00 | 0.00 | 37 | 1010.6 |
| 20260506115553 | 24 | 209 | 12.9 | 35.4 | 0.00 | 0.00 | 0.00 | 38 | 1010.6 |
| 20260506114533 | 23 | 220 | 20.9 | 41.8 | 0.00 | 0.00 | 0.00 | 39 | 1010.8 |
| 20260506113532 | 23 | 203 | 14.5 | 30.6 | 0.00 | 0.00 | 0.00 | 40 | 1010.8 |